Time;durP1;ratioP1;P1;durP2;ratioP2;P2;SDS_P1;SDS_P2;PMS_P1;PMS_P2;Temp;Humidity;BMP_temperature;BMP_pressure;BME280_temperature;BME280_humidity;BME280_pressure;Samples;Min_cycle;Max_cycle;Signal;HPM_P1;HPM_P2
2021/03/09 00:01:46;;;;;;;13.15;9.40;;;;;;;-2.60;100.00;100727.02;1795662;79;21113;-87
2021/03/09 00:04:14;;;;;;;12.80;9.10;;;;;;;-2.61;100.00;100733.02;1795828;79;21188;-87
2021/03/09 00:06:44;;;;;;;14.13;8.63;;;;;;;-2.62;100.00;100727.92;1795751;78;21550;-87
2021/03/09 00:09:12;;;;;;;13.95;9.23;;;;;;;-2.60;100.00;100724.92;1795805;79;21258;-87
2021/03/09 00:11:40;;;;;;;11.33;7.62;;;;;;;-2.58;100.00;100724.47;1795709;79;21133;-87
2021/03/09 00:14:08;;;;;;;10.55;7.65;;;;;;;-2.57;100.00;100728.25;1795762;79;21153;-87
2021/03/09 00:16:36;;;;;;;8.53;5.62;;;;;;;-2.54;100.00;100724.38;1795758;78;21086;-86
2021/03/09 00:19:04;;;;;;;8.33;4.47;;;;;;;-2.54;100.00;100721.83;1795782;79;21554;-87
2021/03/09 00:21:32;;;;;;;7.25;4.95;;;;;;;-2.56;100.00;100720.16;1795775;79;21366;-87
2021/03/09 00:24:01;;;;;;;7.85;3.75;;;;;;;-2.57;100.00;100723.60;1795547;79;21491;-87
2021/03/09 00:26:28;;;;;;;9.15;5.62;;;;;;;-2.58;100.00;100729.56;1795892;79;21106;-87
2021/03/09 00:28:56;;;;;;;8.25;5.10;;;;;;;-2.58;100.00;100718.91;1795755;79;21154;-87
2021/03/09 00:31:24;;;;;;;6.90;4.70;;;;;;;-2.59;100.00;100708.31;1795777;79;21576;-87
2021/03/09 00:33:52;;;;;;;8.03;4.40;;;;;;;-2.59;100.00;100724.05;1796243;79;21180;-87
2021/03/09 00:36:20;;;;;;;5.53;3.92;;;;;;;-2.59;100.00;100719.78;1792987;79;21515;-86
2021/03/09 00:38:48;;;;;;;4.42;3.60;;;;;;;-2.59;100.00;100718.95;1792906;79;21145;-87
2021/03/09 00:41:16;;;;;;;4.53;3.00;;;;;;;-2.60;100.00;100718.55;1792948;79;21197;-87
2021/03/09 00:43:44;;;;;;;5.33;3.25;;;;;;;-2.60;100.00;100718.55;1792894;79;21118;-87
2021/03/09 00:46:12;;;;;;;5.60;2.65;;;;;;;-2.61;100.00;100716.45;1792966;79;21477;-87
2021/03/09 00:48:41;;;;;;;4.45;3.25;;;;;;;-2.61;100.00;100720.27;1792892;79;21149;-87
2021/03/09 00:51:09;;;;;;;4.05;2.80;;;;;;;-2.61;100.00;100720.27;1793098;79;21246;-87
2021/03/09 00:53:38;;;;;;;4.20;2.83;;;;;;;-2.62;100.00;100717.73;1792908;79;21179;-87
2021/03/09 00:56:06;;;;;;;6.47;3.33;;;;;;;-2.64;100.00;100720.31;1792978;79;21189;-86
2021/03/09 00:58:34;;;;;;;3.40;2.70;;;;;;;-2.65;100.00;100726.73;1792970;79;21537;-87
2021/03/09 01:01:02;;;;;;;4.28;3.12;;;;;;;-2.65;100.00;100725.45;1792866;79;21153;-86
2021/03/09 01:03:31;;;;;;;4.33;2.90;;;;;;;-2.68;100.00;100717.84;1792911;79;21058;-87
2021/03/09 01:05:59;;;;;;;3.62;2.55;;;;;;;-2.72;100.00;100714.06;1792833;79;21054;-87
2021/03/09 01:08:27;;;;;;;4.25;2.50;;;;;;;-2.75;100.00;100724.75;1792915;79;21122;-87
2021/03/09 01:10:55;;;;;;;2.60;2.25;;;;;;;-2.79;100.00;100719.33;1792946;79;21744;-87
2021/03/09 01:13:23;;;;;;;3.77;2.08;;;;;;;-2.83;100.00;100718.95;1792899;79;21090;-87
2021/03/09 01:15:51;;;;;;;3.72;2.70;;;;;;;-2.86;100.00;100730.91;1792981;79;21070;-87
2021/03/09 01:18:20;;;;;;;5.60;2.70;;;;;;;-2.89;100.00;100723.75;1792868;79;21482;-86
2021/03/09 01:20:48;;;;;;;3.98;2.50;;;;;;;-2.97;100.00;100730.24;1792918;79;21122;-86
2021/03/09 01:23:16;;;;;;;4.03;2.37;;;;;;;-3.05;100.00;100735.90;1792892;79;22278;-86
2021/03/09 01:25:45;;;;;;;2.40;2.20;;;;;;;-3.13;100.00;100733.91;1792737;79;21173;-86
2021/03/09 01:28:13;;;;;;;3.58;2.30;;;;;;;-3.20;100.00;100734.02;1792909;79;21114;-86
2021/03/09 01:30:41;;;;;;;2.10;1.90;;;;;;;-3.25;100.00;100741.31;1792854;79;21137;-86
2021/03/09 01:33:10;;;;;;;6.00;2.27;;;;;;;-3.36;100.00;100750.41;1793025;79;21165;-86
2021/03/09 01:35:39;;;;;;;2.67;2.12;;;;;;;-3.44;100.00;100744.58;1792862;80;21355;-87
2021/03/09 01:38:08;;;;;;;3.47;2.45;;;;;;;-3.53;100.00;100750.22;1792874;79;21181;-86
2021/03/09 01:40:36;;;;;;;2.98;2.15;;;;;;;-3.56;100.00;100756.61;1792831;79;21605;-86
2021/03/09 01:43:05;;;;;;;2.35;2.00;;;;;;;-3.59;100.00;100759.64;1792911;80;21244;-87
2021/03/09 01:45:33;;;;;;;2.12;1.82;;;;;;;-3.58;100.00;100759.64;1792973;79;21624;-86
2021/03/09 01:48:05;;;;;;;3.95;1.87;;;;;;;-3.56;100.00;100765.52;1807044;77;22283;-87
2021/03/09 01:50:36;;;;;;;2.17;1.98;;;;;;;-3.57;100.00;100771.51;1792749;79;21193;-86
2021/03/09 01:53:06;;;;;;;;;;;;;;;-3.59;100.00;100765.59;1824909;77;21579;-86
2021/03/09 01:55:35;;;;;;;2.22;1.80;;;;;;;-3.61;100.00;100761.38;1825436;77;20486;-86
2021/03/09 01:58:07;;;;;;;1.92;1.70;;;;;;;-3.63;100.00;100760.11;1825357;77;21589;-86
2021/03/09 02:00:34;;;;;;;;;;;;;;;-3.66;100.00;100770.36;1803895;77;21368;-87
2021/03/09 02:03:03;;;;;;;2.87;1.82;;;;;;;-3.70;100.00;100767.42;1795765;78;20233;-87
2021/03/09 02:05:31;;;;;;;2.83;2.22;;;;;;;-3.71;100.00;100769.55;1825320;77;21558;-87
2021/03/09 02:07:59;;;;;;;2.80;2.08;;;;;;;-3.73;100.00;100776.39;1825291;77;21243;-87
2021/03/09 02:10:28;;;;;;;2.72;1.80;;;;;;;-3.74;100.00;100776.81;1825412;77;21467;-86
2021/03/09 02:13:25;;;;;;;2.02;1.60;;;;;;;-3.75;100.00;100775.56;1825374;77;21095;-86
2021/03/09 02:16:13;;;;;;;2.30;2.10;;;;;;;-3.75;100.00;100784.47;1825383;77;21193;-87
2021/03/09 02:19:00;;;;;;;3.27;2.30;;;;;;;-3.73;100.00;100790.39;1807294;77;21173;-87
2021/03/09 02:21:33;;;;;;;2.45;2.00;;;;;;;-3.73;100.00;100794.21;1792840;79;21641;-87
2021/03/09 02:24:52;;;;;;;3.47;2.20;;;;;;;-3.73;100.00;100790.39;1790525;79;37456;-86
2021/03/09 02:27:28;;;;;;;3.35;2.10;;;;;;;-3.71;100.00;100793.73;1706805;82;21211;-86
2021/03/09 02:30:24;;;;;;;2.60;2.20;;;;;;;-3.71;100.00;100792.47;1692763;83;21182;-87
2021/03/09 02:33:09;;;;;;;2.52;2.25;;;;;;;-3.72;100.00;100786.96;1752312;79;21145;-86
2021/03/09 02:35:57;;;;;;;2.27;2.08;;;;;;;-3.75;100.00;100792.94;1791126;79;21194;-86
2021/03/09 02:38:29;;;;;;;2.65;2.40;;;;;;;-3.81;100.00;100795.16;1788117;79;21165;-87
2021/03/09 02:41:00;;;;;;;3.10;2.25;;;;;;;-3.90;100.00;100804.17;1790227;79;21202;-86
2021/03/09 02:43:29;;;;;;;3.00;2.17;;;;;;;-3.99;100.00;100800.02;1792676;79;21621;-87
2021/03/09 02:46:01;;;;;;;3.25;2.37;;;;;;;-4.07;100.00;100809.44;1792971;79;21180;-87
2021/03/09 02:48:29;;;;;;;3.12;2.55;;;;;;;-4.18;100.00;100805.75;1792725;79;21110;-87
2021/03/09 02:51:00;;;;;;;3.17;2.35;;;;;;;-4.28;100.00;100816.45;1792751;79;21161;-87
2021/03/09 02:53:32;;;;;;;3.05;2.17;;;;;;;-4.34;100.00;100815.66;1792944;79;22180;-86
2021/03/09 02:56:06;;;;;;;6.67;2.50;;;;;;;-4.40;100.00;100819.55;1790248;79;21474;-87
2021/03/09 02:58:36;;;;;;;2.30;2.00;;;;;;;-4.47;100.00;100825.11;1790781;79;21201;-86
2021/03/09 03:01:06;;;;;;;3.15;2.20;;;;;;;-4.58;100.00;100827.75;1792736;79;21129;-86
2021/03/09 03:03:41;;;;;;;3.85;2.50;;;;;;;-4.64;100.00;100829.09;1792799;79;21192;-87
2021/03/09 03:06:11;;;;;;;2.75;2.42;;;;;;;-4.69;100.00;100828.30;1792791;79;21561;-86
2021/03/09 03:08:41;;;;;;;4.15;2.72;;;;;;;-4.72;100.00;100835.93;1792749;79;21102;-87
2021/03/09 03:11:09;;;;;;;3.42;2.77;;;;;;;-4.75;100.00;100837.64;1792882;79;21533;-86
2021/03/09 03:13:41;;;;;;;2.60;2.27;;;;;;;-4.78;100.00;100839.36;1792783;79;21192;-86
2021/03/09 03:16:11;;;;;;;2.90;2.47;;;;;;;-4.81;100.00;100845.31;1792793;79;21114;-86
2021/03/09 03:18:45;;;;;;;3.15;2.75;;;;;;;-4.87;100.00;100847.05;1792976;79;21490;-87
2021/03/09 03:21:16;;;;;;;2.98;2.30;;;;;;;-4.92;100.00;100844.13;1792679;79;21102;-86
2021/03/09 03:23:44;;;;;;;2.83;2.42;;;;;;;-4.96;100.00;100851.78;1792943;79;22287;-86
2021/03/09 03:26:12;;;;;;;4.03;2.47;;;;;;;-5.00;100.00;100856.04;1793075;79;21494;-86
2021/03/09 03:28:46;;;;;;;3.00;2.65;;;;;;;-5.03;100.00;100867.48;1792964;79;21449;-87
2021/03/09 03:31:13;;;;;;;3.02;2.50;;;;;;;-5.04;100.00;100871.31;1792877;79;22116;-87
2021/03/09 03:33:42;;;;;;;3.25;2.50;;;;;;;-5.09;100.00;100874.70;1792773;79;21075;-87
2021/03/09 03:36:11;;;;;;;3.60;2.22;;;;;;;-5.12;100.00;100878.55;1792921;79;21129;-86
2021/03/09 03:38:41;;;;;;;4.42;2.12;;;;;;;-5.12;100.00;100884.91;1821189;78;21627;-86
2021/03/09 03:41:11;;;;;;;3.00;2.70;;;;;;;-5.11;100.00;100878.97;1742292;81;21120;-86
2021/03/09 03:43:40;;;;;;;6.30;3.20;;;;;;;-5.12;100.00;100884.91;1756745;81;21367;-87
2021/03/09 03:46:08;;;;;;;4.97;2.90;;;;;;;-5.12;100.00;100887.84;1756752;81;21168;-87
2021/03/09 03:48:38;;;;;;;4.60;2.80;;;;;;;-5.11;100.00;100886.59;1756766;81;21192;-86
2021/03/09 03:51:11;;;;;;;4.50;3.00;;;;;;;-5.11;100.00;100891.67;1742070;81;21549;-86
2021/03/09 03:54:03;;;;;;;4.55;2.95;;;;;;;-5.15;100.00;100895.50;1823790;78;21145;-86
2021/03/09 03:56:40;;;;;;;3.98;3.08;;;;;;;-5.16;100.00;100903.97;1822235;78;21361;-86
2021/03/09 03:59:15;;;;;;;3.65;2.55;;;;;;;-5.19;100.00;100902.70;1741054;81;21223;-86
2021/03/09 04:01:44;;;;;;;4.80;3.25;;;;;;;-5.16;100.00;100907.34;1823124;78;21124;-86
2021/03/09 04:04:15;;;;;;;4.22;3.25;;;;;;;-5.09;100.00;100912.80;1743035;81;21583;-88
2021/03/09 04:06:49;;;;;;;4.13;3.20;;;;;;;-5.01;100.00;100914.05;1763562;81;21053;-86
2021/03/09 04:09:18;;;;;;;7.67;4.08;;;;;;;-4.90;100.00;100919.05;1756864;81;21343;-87
2021/03/09 04:11:48;;;;;;;4.83;3.37;;;;;;;-4.80;100.00;100927.45;1742705;82;21188;-88
2021/03/09 04:14:17;;;;;;;4.78;3.50;;;;;;;-4.70;100.00;100920.63;1759449;81;21121;-89
2021/03/09 04:16:48;;;;;;;4.20;3.20;;;;;;;-4.64;100.00;100923.95;1823897;78;21556;-87
2021/03/09 04:19:18;;;;;;;6.25;3.77;;;;;;;-4.57;100.00;100924.77;1739899;81;21144;-88
2021/03/09 04:21:47;;;;;;;6.28;3.77;;;;;;;-4.51;100.00;100930.23;1759190;81;22292;-89
2021/03/09 04:24:16;;;;;;;3.62;2.90;;;;;;;-4.46;100.00;100938.25;1756813;81;21164;-88
2021/03/09 04:26:46;;;;;;;7.22;3.92;;;;;;;-4.41;100.00;100938.22;1727559;81;22123;-89
2021/03/09 04:29:16;;;;;;;3.95;3.40;;;;;;;-4.37;100.00;100928.42;1757965;81;21149;-89
2021/03/09 04:31:45;;;;;;;6.15;3.90;;;;;;;-4.32;100.00;100925.84;1742869;82;21184;-89
2021/03/09 04:34:15;;;;;;;3.90;3.22;;;;;;;-4.28;100.00;100926.21;1800703;78;22168;-89
2021/03/09 04:36:44;;;;;;;4.10;2.67;;;;;;;-4.26;100.00;100920.70;1742835;82;21156;-87
2021/03/09 04:39:12;;;;;;;4.30;3.52;;;;;;;-4.25;100.00;100926.64;1804124;78;21112;-88
2021/03/09 04:41:40;;;;;;;3.42;2.85;;;;;;;-4.24;100.00;100930.84;1742405;82;21220;-89
2021/03/09 04:44:11;;;;;;;2.77;2.42;;;;;;;-4.23;100.00;100929.58;1823963;78;21117;-88
2021/03/09 04:46:41;;;;;;;6.17;2.77;;;;;;;-4.20;100.00;100942.70;1740924;81;21201;-87
2021/03/09 04:49:10;;;;;;;5.20;3.33;;;;;;;-4.18;100.00;100944.80;1757212;81;21264;-87
2021/03/09 04:51:38;;;;;;;3.17;2.77;;;;;;;-4.15;100.00;100953.25;1741396;80;21653;-87
2021/03/09 04:54:06;;;;;;;4.40;2.98;;;;;;;-4.10;100.00;100954.48;1762569;81;21173;-87
2021/03/09 04:56:34;;;;;;;4.08;2.77;;;;;;;-4.10;100.00;100953.21;1757600;81;21189;-87
2021/03/09 04:59:04;;;;;;;3.05;1.98;;;;;;;-4.10;100.00;100962.11;1756599;81;21201;-87
2021/03/09 05:01:33;;;;;;;4.05;2.55;;;;;;;-4.09;100.00;100959.13;1742575;82;21631;-87
2021/03/09 05:04:01;;;;;;;4.78;3.60;;;;;;;-4.07;100.00;100963.78;1754321;81;21082;-87
2021/03/09 05:06:29;;;;;;;4.03;3.42;;;;;;;-4.06;100.00;100961.22;1741573;81;21122;-87
2021/03/09 05:08:58;;;;;;;3.62;3.15;;;;;;;-4.03;100.00;100975.19;1758377;80;21474;-87
2021/03/09 05:11:29;;;;;;;4.87;3.70;;;;;;;-4.00;100.00;100981.50;1757896;80;21199;-87
2021/03/09 05:13:58;;;;;;;5.20;3.45;;;;;;;-3.97;100.00;100979.39;1737163;80;21202;-87
2021/03/09 05:16:26;;;;;;;4.20;3.65;;;;;;;-3.97;100.00;100971.76;1825500;77;21117;-87
2021/03/09 05:18:54;;;;;;;6.30;3.90;;;;;;;-3.99;100.00;100974.73;1828058;77;21188;-88
2021/03/09 05:21:22;;;;;;;6.78;3.62;;;;;;;-3.96;100.00;100983.59;1828366;77;21138;-86
2021/03/09 05:23:50;;;;;;;4.92;3.45;;;;;;;-3.95;100.00;100978.92;1828226;77;21523;-87
2021/03/09 05:26:18;;;;;;;6.80;3.65;;;;;;;-3.94;100.00;100990.80;1828119;77;21157;-87
2021/03/09 05:28:48;;;;;;;4.53;2.50;;;;;;;-3.92;100.00;100986.54;1828144;77;21117;-88
2021/03/09 05:31:16;;;;;;;5.12;3.52;;;;;;;-3.91;100.00;100999.69;1828466;77;21098;-86
2021/03/09 05:33:45;;;;;;;3.02;2.22;;;;;;;-3.91;100.00;100999.69;1828384;77;21069;-87
2021/03/09 05:36:13;;;;;;;5.78;3.17;;;;;;;-3.83;100.00;101013.19;1818053;77;21171;-86
2021/03/09 05:38:41;;;;;;;2.95;2.35;;;;;;;-3.78;100.00;101014.83;1795901;78;21502;-86
2021/03/09 05:41:09;;;;;;;3.25;2.05;;;;;;;-3.72;100.00;101019.44;1809954;77;21101;-86
2021/03/09 05:43:38;;;;;;;4.65;3.08;;;;;;;-3.68;100.00;101025.34;1808181;77;21237;-87
2021/03/09 05:46:05;;;;;;;4.40;3.30;;;;;;;-3.67;100.00;101038.50;1782872;79;21154;-87
2021/03/09 05:48:34;;;;;;;5.37;3.10;;;;;;;-3.69;100.00;101046.56;1791715;78;21181;-87
2021/03/09 05:51:02;;;;;;;4.55;2.90;;;;;;;-3.71;100.00;101055.50;1827584;77;21130;-87
2021/03/09 05:53:30;;;;;;;3.33;1.67;;;;;;;-3.71;100.00;101053.36;1813627;78;20920;-88
2021/03/09 05:55:58;;;;;;;2.05;1.80;;;;;;;-3.76;100.00;101059.77;1823456;77;21212;-87
2021/03/09 05:58:27;;;;;;;3.92;2.50;;;;;;;-3.77;100.00;101065.73;1803098;78;21180;-87
2021/03/09 06:00:55;;;;;;;3.05;1.47;;;;;;;-3.81;100.00;101089.09;1806084;77;21653;-88
2021/03/09 06:03:28;;;;;;;4.05;2.60;;;;;;;-3.84;100.00;101077.66;1810084;77;21291;-88
2021/03/09 06:05:57;;;;;;;3.27;1.92;;;;;;;-3.82;100.00;101080.19;1795749;79;21106;-88
2021/03/09 06:08:25;;;;;;;4.25;2.92;;;;;;;-3.86;100.00;101082.34;1795611;78;21161;-87
2021/03/09 06:11:14;;;;;;;7.60;2.62;;;;;;;-3.94;100.00;101091.30;1795667;79;21062;-88
2021/03/09 06:13:45;;;;;;;4.17;2.52;;;;;;;-4.03;100.00;101084.59;1802739;78;21412;-88
2021/03/09 06:16:13;;;;;;;8.73;3.35;;;;;;;-4.08;100.00;101088.02;1802928;77;21662;-88
2021/03/09 06:18:58;;;;;;;2.80;1.47;;;;;;;-4.05;100.00;101096.91;1820065;77;21161;-89
2021/03/09 06:21:28;;;;;;;6.72;3.62;;;;;;;-3.96;100.00;101096.41;1794625;78;21133;-88
2021/03/09 06:23:56;;;;;;;4.87;2.47;;;;;;;-3.83;100.00;101093.76;1810026;78;21158;-88
2021/03/09 06:26:41;;;;;;;7.83;3.12;;;;;;;-3.70;100.00;101095.78;1807834;78;21577;-88
2021/03/09 06:29:15;;;;;;;2.77;1.92;;;;;;;-3.60;100.00;101092.72;1828568;77;21161;-88
2021/03/09 06:31:58;;;;;;;6.65;3.62;;;;;;;-3.54;100.00;101099.89;1828528;77;21946;-89
2021/03/09 06:34:31;;;;;;;2.90;2.00;;;;;;;-3.49;100.00;101092.21;1828512;78;21585;-88
2021/03/09 06:37:22;;;;;;;1.72;1.40;;;;;;;-3.39;100.00;101100.60;1836972;78;21214;-88
2021/03/09 06:39:58;;;;;;;;;;;;;;;-3.36;100.00;101105.68;1815341;78;22051;-85
2021/03/09 06:42:36;;;;;;;4.15;2.62;;;;;;;-3.46;100.00;101121.89;1821433;78;20214;-86
2021/03/09 06:45:14;;;;;;;3.65;2.37;;;;;;;-3.54;100.00;101113.89;1832894;78;21502;-84
2021/03/09 06:47:46;;;;;;;1.95;1.60;;;;;;;-3.60;100.00;101120.31;1823124;77;21146;-84
2021/03/09 06:50:21;;;;;;;5.45;2.42;;;;;;;-3.65;100.00;101124.17;1807691;77;21185;-85
2021/03/09 06:53:04;;;;;;;6.53;3.17;;;;;;;-3.62;100.00;101118.64;1810040;77;21181;-84
2021/03/09 06:55:34;;;;;;;2.87;1.77;;;;;;;-3.55;100.00;101117.29;1815463;77;21118;-84
2021/03/09 06:58:14;;;;;;;4.53;2.75;;;;;;;-3.41;100.00;101113.80;1793251;80;21130;-85
2021/03/09 07:00:43;;;;;;;2.25;1.90;;;;;;;-3.36;100.00;101117.97;1793086;79;21082;-84
2021/03/09 07:03:36;;;;;;;2.87;1.85;;;;;;;-3.30;100.00;101121.34;1793316;79;21050;-84
2021/03/09 07:06:05;;;;;;;3.00;2.40;;;;;;;-3.24;100.00;101123.82;1793401;79;22201;-84
2021/03/09 07:08:33;;;;;;;2.08;1.40;;;;;;;-3.19;100.00;101122.92;1820453;77;21070;-85
2021/03/09 07:11:02;;;;;;;4.95;1.65;;;;;;;-3.21;100.00;101133.99;1797770;78;21071;-83
2021/03/09 07:13:42;;;;;;;2.45;1.27;;;;;;;-3.24;100.00;101133.56;1793206;79;21157;-84
2021/03/09 07:16:13;;;;;;;3.27;2.37;;;;;;;-3.23;100.00;101154.36;1795739;77;21406;-84
2021/03/09 07:18:43;;;;;;;3.08;2.55;;;;;;;-3.15;100.00;101145.80;1811442;78;21349;-83
2021/03/09 07:21:11;;;;;;;3.60;2.33;;;;;;;-3.15;100.00;101140.30;1822932;78;21118;-83
2021/03/09 07:23:41;;;;;;;3.10;1.82;;;;;;;-3.15;100.00;101147.08;1825770;78;21110;-84
2021/03/09 07:26:14;;;;;;;2.30;1.52;;;;;;;-3.11;100.00;101157.67;1819263;77;21460;-84
2021/03/09 07:28:44;;;;;;;2.35;1.77;;;;;;;-3.08;100.00;101153.80;1816186;77;21117;-84
2021/03/09 07:31:13;;;;;;;2.57;1.77;;;;;;;-3.14;100.00;101167.88;1815464;78;21166;-84
2021/03/09 07:33:42;;;;;;;3.47;2.33;;;;;;;-3.14;100.00;101167.88;1812550;77;21525;-84
2021/03/09 07:36:12;;;;;;;2.70;1.92;;;;;;;-3.08;100.00;101153.80;1809006;77;21125;-83
2021/03/09 07:38:45;;;;;;;2.12;1.62;;;;;;;-2.94;100.00;101148.16;1840245;77;21100;-84
2021/03/09 07:41:16;;;;;;;2.67;1.70;;;;;;;-2.81;100.00;101149.29;1781933;79;21129;-84
2021/03/09 07:43:44;;;;;;;3.67;2.00;;;;;;;-2.87;100.00;101154.88;1796351;79;22152;-84
2021/03/09 07:46:13;;;;;;;2.62;1.45;;;;;;;-2.87;100.00;101159.11;1795961;79;21138;-84
2021/03/09 07:48:41;;;;;;;3.85;1.52;;;;;;;-2.83;98.56;101161.20;1795916;79;21165;-84
2021/03/09 07:51:08;;;;;;;1.85;1.67;;;;;;;-2.80;100.00;101159.45;1796004;79;21145;-84
2021/03/09 07:53:36;;;;;;;2.00;1.40;;;;;;;-2.74;100.00;101161.10;1802806;77;21185;-84
2021/03/09 07:56:16;;;;;;;2.37;1.75;;;;;;;-2.71;98.37;101163.63;1808109;78;22284;-84
2021/03/09 07:58:44;;;;;;;1.67;1.57;;;;;;;-2.67;97.07;101160.17;1806184;77;21138;-83
2021/03/09 08:01:12;;;;;;;1.85;1.45;;;;;;;-2.61;94.13;101169.05;1796138;79;21062;-84
2021/03/09 08:03:42;;;;;;;1.98;0.98;;;;;;;-2.57;95.83;101170.69;1796246;79;21126;-84
2021/03/09 08:06:17;;;;;;;1.77;1.32;;;;;;;-2.55;90.96;101181.72;1796358;79;21220;-83
2021/03/09 08:08:54;;;;;;;1.10;1.00;;;;;;;-2.56;90.46;101174.93;1795967;79;22206;-83
2021/03/09 08:11:27;;;;;;;3.50;1.30;;;;;;;-2.59;84.15;101194.52;1796073;79;21080;-83
2021/03/09 08:14:09;;;;;;;1.75;1.30;;;;;;;-2.75;83.34;101189.59;1796025;79;21185;-83
2021/03/09 08:16:42;;;;;;;1.32;1.15;;;;;;;-2.78;89.20;101185.78;1795988;79;21165;-83
2021/03/09 08:19:26;;;;;;;2.83;1.90;;;;;;;-2.81;86.71;101180.73;1796055;79;21522;-83
2021/03/09 08:21:58;;;;;;;5.08;1.67;;;;;;;-2.73;94.46;101180.64;1795046;79;21472;-83
2021/03/09 08:24:45;;;;;;;1.60;1.40;;;;;;;-2.55;89.92;101185.96;1796114;79;21154;-83
2021/03/09 08:27:33;;;;;;;1.60;1.47;;;;;;;-2.39;90.64;101198.12;1743661;81;21595;-83
2021/03/09 08:30:23;;;;;;;1.85;1.40;;;;;;;-2.30;86.92;101174.19;1736674;82;21182;-83
2021/03/09 08:33:26;;;;;;;1.82;1.05;;;;;;;-2.23;80.21;101194.52;1736833;81;21155;-83
2021/03/09 08:35:54;;;;;;;5.17;1.47;;;;;;;-2.35;77.39;101193.83;1736629;81;21412;-84
2021/03/09 08:38:24;;;;;;;1.20;0.98;;;;;;;-2.38;74.73;101189.16;1736517;81;21627;-84
2021/03/09 08:41:03;;;;;;;2.27;1.20;;;;;;;-2.22;80.68;101176.21;1736621;81;21261;-84
2021/03/09 08:43:32;;;;;;;2.27;2.05;;;;;;;-2.16;83.48;101184.23;1725827;82;21135;-84
2021/03/09 08:46:03;;;;;;;1.87;1.62;;;;;;;-2.10;77.84;101183.73;1728450;81;21508;-83
2021/03/09 08:48:50;;;;;;;3.12;2.27;;;;;;;-1.94;85.48;101180.52;1728370;81;21196;-83
2021/03/09 08:51:42;;;;;;;2.17;1.40;;;;;;;-1.79;87.90;101189.67;1728368;81;21124;-83
2021/03/09 08:54:31;;;;;;;2.15;1.10;;;;;;;-1.64;81.58;101204.36;1728521;82;21190;-83
2021/03/09 08:57:02;;;;;;;2.75;2.10;;;;;;;-1.54;78.40;101205.05;1728336;81;21143;-83
2021/03/09 08:59:32;;;;;;;1.75;1.50;;;;;;;-1.51;81.08;101203.74;1728309;81;21108;-83
2021/03/09 09:02:10;;;;;;;2.20;1.67;;;;;;;-1.39;87.84;101199.70;1728382;81;21200;-84
2021/03/09 09:04:45;;;;;;;2.20;1.82;;;;;;;-1.27;78.58;101203.36;1728341;82;21194;-83
2021/03/09 09:07:27;;;;;;;2.27;1.85;;;;;;;-1.49;73.15;101209.68;1728341;81;21488;-83
2021/03/09 09:10:06;;;;;;;2.05;1.67;;;;;;;-1.61;80.81;101209.43;1728493;83;21194;-84
2021/03/09 09:12:40;;;;;;;4.25;2.58;;;;;;;-1.66;85.48;101212.05;1722994;81;21068;-84
2021/03/09 09:15:29;;;;;;;3.05;1.70;;;;;;;-1.54;91.31;101213.58;1728408;81;21374;-84
2021/03/09 09:18:08;;;;;;;1.65;1.55;;;;;;;-1.43;83.24;101230.02;1728432;81;21230;-84
2021/03/09 09:20:47;;;;;;;1.37;1.27;;;;;;;-1.34;80.73;101225.19;1728342;81;21279;-83
2021/03/09 09:23:28;;;;;;;1.75;1.40;;;;;;;-1.48;68.29;101227.95;1728290;81;21163;-83
2021/03/09 09:26:00;;;;;;;2.35;1.95;;;;;;;-1.73;74.24;101233.86;1728555;82;21087;-84
2021/03/09 09:28:38;;;;;;;3.50;1.75;;;;;;;-1.96;77.25;101238.40;1728333;81;21642;-84
2021/03/09 09:31:15;;;;;;;46.73;2.72;;;;;;;-2.07;81.28;101246.64;1728214;81;21143;-84
2021/03/09 09:33:51;;;;;;;3.00;1.95;;;;;;;-2.12;87.12;101245.42;1728152;81;21627;-84
2021/03/09 09:36:23;;;;;;;2.12;1.37;;;;;;;-2.16;86.10;101242.92;1728121;82;21144;-84
2021/03/09 09:38:56;;;;;;;1.92;1.10;;;;;;;-2.27;76.89;101255.81;1728393;81;21588;-83
2021/03/09 09:41:25;;;;;;;2.98;1.67;;;;;;;-2.40;73.34;101261.47;1728322;81;21200;-84
2021/03/09 09:43:53;;;;;;;1.85;1.22;;;;;;;-2.48;72.75;101255.61;1728181;81;21195;-83
2021/03/09 09:46:25;;;;;;;2.98;1.85;;;;;;;-2.54;78.68;101267.58;1728250;81;21116;-83
2021/03/09 09:48:54;;;;;;;2.00;1.67;;;;;;;-2.56;75.24;101280.77;1728238;82;21135;-83
2021/03/09 09:51:25;;;;;;;3.67;2.30;;;;;;;-2.60;77.28;101276.98;1728355;81;21071;-83
2021/03/09 09:53:54;;;;;;;4.10;1.60;;;;;;;-2.54;83.03;101272.67;1728454;81;21441;-84
2021/03/09 09:56:25;;;;;;;2.83;2.22;;;;;;;-2.43;87.01;101266.59;1728096;81;21128;-84
2021/03/09 09:59:02;;;;;;;3.45;2.40;;;;;;;-2.37;84.57;101269.11;1728349;82;21168;-84
2021/03/09 10:01:39;;;;;;;3.40;2.40;;;;;;;-2.33;82.73;101259.27;1728285;81;21116;-84
2021/03/09 10:04:15;;;;;;;5.58;2.17;;;;;;;-2.33;85.96;101276.30;1728271;81;21171;-84
2021/03/09 10:06:51;;;;;;;2.58;1.65;;;;;;;-2.29;90.12;101268.59;1728170;81;21202;-84
2021/03/09 10:09:24;;;;;;;6.53;2.33;;;;;;;-2.19;87.53;101264.63;1728224;81;21202;-84
2021/03/09 10:12:00;;;;;;;4.37;3.12;;;;;;;-2.12;89.38;101256.91;1728204;81;21178;-84
2021/03/09 10:14:33;;;;;;;3.72;2.85;;;;;;;-2.08;91.32;101266.64;1728081;82;21590;-84
2021/03/09 10:17:03;;;;;;;2.55;1.72;;;;;;;-2.05;95.42;101253.86;1728187;81;21187;-84
2021/03/09 10:19:37;;;;;;;2.62;1.57;;;;;;;-2.04;89.41;101257.23;1728198;81;21378;-84
2021/03/09 10:22:21;;;;;;;4.95;2.80;;;;;;;-2.03;87.61;101269.97;1728081;81;21250;-84
2021/03/09 10:24:49;;;;;;;4.72;1.98;;;;;;;-2.01;87.53;101269.53;1728307;81;21611;-84
2021/03/09 10:27:22;;;;;;;6.10;2.55;;;;;;;-2.07;90.20;101273.44;1728173;81;21214;-84
2021/03/09 10:29:56;;;;;;;2.95;2.33;;;;;;;-2.05;100.00;101267.89;1728212;81;21131;-84
2021/03/09 10:32:25;;;;;;;3.98;2.12;;;;;;;-1.92;94.60;101269.42;1725005;83;21379;-84
2021/03/09 10:34:55;;;;;;;2.98;2.52;;;;;;;-1.74;100.00;101254.73;1728129;81;21100;-84
2021/03/09 10:37:38;;;;;;;5.03;2.55;;;;;;;-1.69;95.30;101265.72;1728068;82;21151;-84
2021/03/09 10:40:10;;;;;;;3.50;2.70;;;;;;;-1.79;97.62;101271.80;1728221;81;21139;-84
2021/03/09 10:42:50;;;;;;;3.60;2.15;;;;;;;-1.99;100.00;101270.78;1728337;82;21515;-84
2021/03/09 10:45:29;;;;;;;3.35;2.72;;;;;;;-2.14;100.00;101284.14;1726892;81;22294;-84
2021/03/09 10:48:02;;;;;;;5.30;3.83;;;;;;;-2.28;100.00;101285.56;1728059;81;21183;-84
2021/03/09 10:50:42;;;;;;;6.65;3.15;;;;;;;-2.39;100.00;101279.75;1728067;81;21123;-84
2021/03/09 10:53:11;;;;;;;2.50;2.30;;;;;;;-2.47;100.00;101272.61;1726826;81;21534;-84
2021/03/09 10:55:40;;;;;;;9.20;4.05;;;;;;;-2.54;100.00;101286.70;1730383;80;21783;-85
2021/03/09 10:58:08;;;;;;;6.58;4.08;;;;;;;-2.55;100.00;101281.59;1746099;80;21191;-85
2021/03/09 11:00:36;;;;;;;5.90;3.80;;;;;;;-2.47;100.00;101285.36;1731750;80;21238;-85
2021/03/09 11:03:06;;;;;;;6.62;3.95;;;;;;;-2.33;100.00;101278.41;1743885;81;21067;-85
2021/03/09 11:05:34;;;;;;;3.92;2.10;;;;;;;-2.27;97.46;101281.33;1758369;80;21155;-85
2021/03/09 11:08:02;;;;;;;4.97;2.95;;;;;;;-2.25;97.00;101288.09;1758245;80;21151;-85
2021/03/09 11:10:30;;;;;;;2.87;1.47;;;;;;;-2.17;93.73;101276.95;1733345;81;21188;-85
2021/03/09 11:12:58;;;;;;;3.80;3.10;;;;;;;-2.12;89.19;101276.45;1744900;80;21143;-85
2021/03/09 11:15:26;;;;;;;2.67;2.05;;;;;;;-2.04;87.54;101271.27;1739655;81;21604;-85
2021/03/09 11:17:54;;;;;;;3.83;2.30;;;;;;;-1.98;92.03;101268.23;1683375;84;21199;-85
2021/03/09 11:20:22;;;;;;;2.35;1.67;;;;;;;-1.93;90.13;101275.39;1697225;82;21156;-85
2021/03/09 11:22:51;;;;;;;3.67;2.58;;;;;;;-1.98;87.19;101282.27;1684929;84;21176;-85
2021/03/09 11:25:21;;;;;;;4.58;2.75;;;;;;;-2.14;87.18;101277.77;1698864;82;21199;-84
2021/03/09 11:27:49;;;;;;;4.95;2.50;;;;;;;-2.29;98.09;101271.56;1690037;82;21473;-84
2021/03/09 11:30:18;;;;;;;3.25;2.25;;;;;;;-2.48;100.00;101290.05;1687930;82;21660;-84
2021/03/09 11:32:47;;;;;;;3.90;2.77;;;;;;;-2.69;100.00;101300.88;1684269;84;21648;-84
2021/03/09 11:35:15;;;;;;;2.52;1.82;;;;;;;-2.86;100.00;101307.38;1689251;82;22314;-85
2021/03/09 11:37:43;;;;;;;6.47;2.92;;;;;;;-3.02;100.00;101314.31;1717681;80;21119;-86
2021/03/09 11:40:13;;;;;;;6.20;3.47;;;;;;;-3.09;100.00;101317.77;1731520;81;21147;-85
2021/03/09 11:42:41;;;;;;;5.10;4.05;;;;;;;-3.08;100.00;101307.96;1728170;81;21722;-84